SNSO weather

Serro Airport
Serro, Minas Gerais, Brazil

Public forecast

Using degrees Celsius for public forecast. Weather courtesy of forecast.io.

Closest aviation weather report (METAR) to Serro Airport

Closest report is Tancredo Neves International Airport, 68.5 nm (126.8 km) SSW. Retrieved 2020/08/04 11:00 UTC (6 minutes ago):

SBCF 041100Z 13006KT CAVOK 12/09 Q1030

Aviation forecast (TAF) for Serro Airport

Forecast is more than 12 hours old.

Retrieved 2009/11/03 09:30 UTC (11 years ago):

TAF SNSO 030930Z 0312/0418 06010G20KT CAVOK TEMPO 0315/0319 5000 HZ